Time;durP1;ratioP1;P1;durP2;ratioP2;P2;SDS_P1;SDS_P2;PMS_P1;PMS_P2;Temp;Humidity;BMP_temperature;BMP_pressure;BME280_temperature;BME280_humidity;BME280_pressure;Samples;Min_cycle;Max_cycle;Signal;HPM_P1;HPM_P2
2022/09/03 00:02:39;;;;;;;5.28;3.85;;;;;;;17.35;89.14;101190.81;7381461;19;20010;-72
2022/09/03 00:05:17;;;;;;;7.00;4.65;;;;;;;17.32;89.49;101194.38;7381754;19;20019;-70
2022/09/03 00:07:57;;;;;;;7.35;4.25;;;;;;;17.27;89.93;101188.22;7379833;19;20487;-71
2022/09/03 00:10:39;;;;;;;10.60;4.70;;;;;;;17.27;90.16;101185.56;7380094;19;20383;-72
2022/09/03 00:13:11;;;;;;;9.60;5.07;;;;;;;17.22;90.62;101182.06;7380111;19;20025;-72
2022/09/03 00:15:42;;;;;;;8.55;4.57;;;;;;;17.20;90.34;101182.09;7380030;19;20014;-70
2022/09/03 00:18:19;;;;;;;8.10;4.50;;;;;;;17.17;90.98;101181.22;7383200;19;20017;-71
2022/09/03 00:20:56;;;;;;;9.63;4.75;;;;;;;17.16;91.73;101175.06;7383050;19;20019;-71
2022/09/03 00:23:36;;;;;;;9.35;4.38;;;;;;;17.14;91.25;101176.84;7380623;19;20026;-70
2022/09/03 00:26:21;;;;;;;7.00;3.95;;;;;;;17.10;91.47;101164.50;7379868;19;20122;-72
2022/09/03 00:28:58;;;;;;;7.25;4.50;;;;;;;17.09;91.53;101175.13;7380646;19;20098;-71
2022/09/03 00:31:36;;;;;;;7.88;4.75;;;;;;;17.12;91.73;101157.41;7382939;19;20024;-71
2022/09/03 00:34:16;;;;;;;7.88;4.47;;;;;;;17.12;91.97;101167.16;7378316;19;20368;-71
2022/09/03 00:36:47;;;;;;;7.18;4.10;;;;;;;17.09;91.71;101160.09;7381996;19;20471;-71
2022/09/03 00:39:22;;;;;;;9.55;5.15;;;;;;;17.08;92.23;101163.63;7379855;19;20351;-71
2022/09/03 00:42:08;;;;;;;7.25;4.53;;;;;;;17.10;92.30;101174.22;7381337;19;20055;-72
2022/09/03 00:44:55;;;;;;;8.10;3.90;;;;;;;17.10;92.09;101175.09;7380177;19;20019;-72
2022/09/03 00:47:39;;;;;;;9.88;4.70;;;;;;;17.09;92.90;101172.47;7379702;19;20011;-71
2022/09/03 00:50:15;;;;;;;8.15;4.30;;;;;;;17.09;92.61;101183.94;7380254;19;20056;-72
2022/09/03 00:52:56;;;;;;;10.85;5.43;;;;;;;17.15;92.29;101178.59;7381405;19;21325;-78
2022/09/03 00:55:40;;;;;;;7.80;4.72;;;;;;;17.17;92.27;101174.16;7382293;19;20540;-79
2022/09/03 00:58:28;;;;;;;7.63;5.05;;;;;;;17.27;91.45;101175.84;7383137;19;20492;-76
2022/09/03 01:01:02;;;;;;;8.15;4.72;;;;;;;17.25;91.03;101167.03;7386025;19;20013;-77
2022/09/03 01:03:42;;;;;;;8.68;5.00;;;;;;;17.31;91.27;101174.94;7383813;19;20018;-77
2022/09/03 01:06:21;;;;;;;10.80;4.93;;;;;;;17.30;91.05;101180.25;7388971;19;20014;-77
2022/09/03 01:09:10;;;;;;;7.75;4.40;;;;;;;17.30;91.16;101178.47;7389861;19;20031;-77
2022/09/03 01:11:54;;;;;;;8.43;4.50;;;;;;;17.33;90.76;101178.44;7391721;19;20019;-70
2022/09/03 01:14:39;;;;;;;7.85;4.60;;;;;;;17.30;91.38;101180.25;7388371;19;20031;-72
2022/09/03 01:17:18;;;;;;;9.15;4.50;;;;;;;17.31;90.26;101180.22;7387635;19;20518;-71
2022/09/03 01:20:04;;;;;;;9.27;5.05;;;;;;;17.28;90.50;101185.56;7384530;19;20015;-72
2022/09/03 01:23:11;;;;;;;6.75;4.45;;;;;;;17.33;91.09;101183.75;7381536;19;20007;-71
2022/09/03 01:25:54;;;;;;;9.75;4.72;;;;;;;17.29;91.36;101182.00;7378624;19;20011;-72
2022/09/03 01:28:39;;;;;;;9.25;4.75;;;;;;;17.24;91.80;101188.25;7380513;19;20018;-70
2022/09/03 01:31:20;;;;;;;8.75;4.50;;;;;;;17.25;91.82;101196.19;7381129;19;20021;-70
2022/09/03 01:34:00;;;;;;;7.95;4.75;;;;;;;17.26;91.61;101184.69;7370587;19;20048;-70
2022/09/03 01:36:38;;;;;;;9.98;4.90;;;;;;;17.25;91.99;101185.59;7380819;19;20078;-71
2022/09/03 01:39:16;;;;;;;7.35;4.78;;;;;;;17.23;92.21;101187.38;7379293;19;20022;-72
2022/09/03 01:45:07;;;;;;;8.52;4.78;;;;;;;17.17;92.52;101187.41;7380649;19;20544;-71
2022/09/03 01:47:50;;;;;;;7.05;4.75;;;;;;;17.16;92.76;101185.66;7386744;19;20367;-71
2022/09/03 01:50:37;;;;;;;7.13;4.70;;;;;;;17.17;92.90;101184.75;7387391;19;20027;-71
2022/09/03 01:53:21;;;;;;;9.25;4.90;;;;;;;17.19;91.94;101179.44;7382923;19;20070;-71
2022/09/03 01:56:12;;;;;;;8.57;5.40;;;;;;;17.15;92.72;101183.91;7385319;19;20018;-71
2022/09/03 01:58:45;;;;;;;9.70;5.13;;;;;;;17.12;93.77;101177.75;7385498;19;20503;-71
2022/09/03 02:01:20;;;;;;;;;;;;;;;17.16;92.56;101180.34;7387410;19;20368;-77
2022/09/03 02:03:56;;;;;;;10.02;5.13;;;;;;;17.18;92.42;101173.28;7387629;19;19921;-77
2022/09/03 02:06:30;;;;;;;8.93;5.30;;;;;;;17.11;92.49;101182.16;7390664;19;20044;-76
2022/09/03 02:09:05;;;;;;;8.40;5.18;;;;;;;17.12;92.53;101173.31;7387840;19;20014;-76
2022/09/03 02:11:40;;;;;;;10.47;5.50;;;;;;;17.06;93.27;101168.06;7392197;19;20014;-78
2022/09/03 02:14:10;;;;;;;8.90;4.97;;;;;;;17.02;93.56;101171.63;7391636;19;20039;-76
2022/09/03 02:16:43;;;;;;;8.38;5.10;;;;;;;17.00;93.40;101169.00;7392662;19;20011;-78
2022/09/03 02:19:16;;;;;;;7.75;4.72;;;;;;;16.93;94.31;101171.72;7392676;19;20010;-77
2022/09/03 02:21:49;;;;;;;8.43;5.50;;;;;;;16.91;94.09;101166.41;7391362;19;20031;-76
2022/09/03 02:24:19;;;;;;;;;;;;;;;16.88;94.68;101166.44;7392290;19;20327;-76
2022/09/03 02:26:49;;;;;;;9.93;5.45;;;;;;;16.91;93.97;101168.19;7389302;19;20273;-77
2022/09/03 02:29:19;;;;;;;9.57;4.68;;;;;;;16.86;94.54;101165.56;7389874;19;20010;-75
2022/09/03 02:31:52;;;;;;;7.38;5.03;;;;;;;16.80;95.25;101162.97;7390765;19;20026;-76
2022/09/03 02:34:23;;;;;;;9.27;5.35;;;;;;;16.74;95.85;101159.47;7391910;19;20086;-77
2022/09/03 02:36:53;;;;;;;9.02;5.00;;;;;;;16.71;96.12;101156.84;7389022;19;20120;-78
2022/09/03 02:39:23;;;;;;;7.75;4.65;;;;;;;16.66;95.73;101162.19;7389204;19;20552;-77
2022/09/03 02:41:57;;;;;;;9.18;5.50;;;;;;;16.57;96.63;101168.41;7388361;19;20500;-76
2022/09/03 02:44:32;;;;;;;9.55;5.63;;;;;;;16.54;96.91;101165.78;7387367;19;20455;-76
2022/09/03 02:47:12;;;;;;;7.55;4.80;;;;;;;16.48;97.36;101168.47;7385438;19;20585;-76
2022/09/03 02:49:42;;;;;;;8.50;5.75;;;;;;;16.45;97.30;101171.13;7386267;19;20011;-76
2022/09/03 02:52:12;;;;;;;7.60;5.20;;;;;;;16.38;98.25;101161.47;7386374;19;20136;-77
2022/09/03 02:54:44;;;;;;;8.25;5.15;;;;;;;16.35;98.44;101161.47;7386057;19;20014;-71
2022/09/03 02:57:16;;;;;;;7.05;4.97;;;;;;;16.29;98.83;101161.50;7383847;19;20042;-76
2022/09/03 02:59:56;;;;;;;9.10;5.70;;;;;;;16.22;99.45;101160.66;7385207;19;20039;-77
2022/09/03 03:02:29;;;;;;;8.90;5.50;;;;;;;16.15;100.00;101153.63;7384261;19;20014;-75
2022/09/03 03:04:59;;;;;;;;;;;;;;;16.14;100.00;101151.00;7388077;19;20045;-77
2022/09/03 03:07:38;;;;;;;8.40;5.68;;;;;;;16.09;100.00;101152.78;7386872;19;19919;-76
2022/09/03 03:10:09;;;;;;;9.60;5.60;;;;;;;16.10;100.00;101154.53;7387171;19;20039;-77
2022/09/03 03:12:42;;;;;;;10.02;5.80;;;;;;;16.03;100.00;101166.91;7387974;19;20026;-77
2022/09/03 03:15:12;;;;;;;10.68;5.47;;;;;;;15.95;100.00;101161.66;7385251;19;20043;-76
2022/09/03 03:17:44;;;;;;;16.08;7.10;;;;;;;15.96;100.00;101165.19;7387708;19;20010;-76
2022/09/03 03:20:14;;;;;;;10.13;6.20;;;;;;;15.86;100.00;101153.75;7387154;19;20090;-76
2022/09/03 03:22:44;;;;;;;12.63;6.22;;;;;;;15.82;100.00;101157.28;7386024;19;20320;-76
2022/09/03 03:25:14;;;;;;;11.88;6.40;;;;;;;15.80;100.00;101155.53;7386043;19;20115;-77
2022/09/03 03:27:45;;;;;;;8.90;6.03;;;;;;;15.76;100.00;101154.66;7387998;19;20007;-77
2022/09/03 03:30:15;;;;;;;10.55;6.20;;;;;;;15.77;100.00;101152.91;7383679;19;20010;-76
2022/09/03 03:32:48;;;;;;;11.18;5.97;;;;;;;15.71;100.00;101161.72;7386272;19;20014;-76
2022/09/03 03:35:18;;;;;;;10.43;6.22;;;;;;;15.70;100.00;101157.31;7385035;19;20016;-75
2022/09/03 03:37:48;;;;;;;8.88;6.20;;;;;;;15.62;100.00;101151.19;7385061;19;20007;-77
2022/09/03 03:40:19;;;;;;;10.70;6.50;;;;;;;15.59;100.00;101159.16;7385672;19;20006;-77
2022/09/03 03:42:49;;;;;;;9.40;6.40;;;;;;;15.56;100.00;101153.84;7384886;19;20040;-76
2022/09/03 03:45:19;;;;;;;9.00;6.45;;;;;;;15.56;100.00;101153.84;7384191;19;20072;-77
2022/09/03 03:47:52;;;;;;;11.05;6.30;;;;;;;15.56;100.00;101159.13;7385631;19;20018;-77
2022/09/03 03:50:22;;;;;;;10.13;6.43;;;;;;;15.55;100.00;101157.34;7387201;19;20015;-78
2022/09/03 03:52:52;;;;;;;9.68;5.85;;;;;;;15.52;100.00;101162.66;7383894;19;20018;-77
2022/09/03 03:55:22;;;;;;;9.93;6.80;;;;;;;15.60;100.00;101159.09;7384718;19;20011;-76
2022/09/03 03:57:55;;;;;;;8.85;5.95;;;;;;;15.56;100.00;101164.41;7387200;19;20131;-76
2022/09/03 04:00:25;;;;;;;11.65;6.32;;;;;;;15.51;100.00;101168.81;7386465;19;20129;-76
2022/09/03 04:03:00;;;;;;;8.80;6.00;;;;;;;15.52;100.00;101170.59;7387763;19;20036;-76
2022/09/03 04:05:31;;;;;;;12.98;5.68;;;;;;;15.49;100.00;101170.59;7385659;19;20013;-70
2022/09/03 04:08:07;;;;;;;12.93;7.30;;;;;;;15.48;100.00;101168.81;7388378;19;20015;-78
2022/09/03 04:10:39;;;;;;;11.27;6.70;;;;;;;15.48;100.00;101163.53;7388205;19;20030;-75
2022/09/03 04:13:10;;;;;;;11.00;6.80;;;;;;;15.47;100.00;101170.59;7388362;19;20272;-77
2022/09/03 04:15:41;;;;;;;9.98;6.30;;;;;;;15.44;100.00;101161.78;7389770;19;20047;-77
2022/09/03 04:18:13;;;;;;;8.65;5.72;;;;;;;15.43;100.00;101165.31;7391910;19;20003;-77
2022/09/03 04:20:44;;;;;;;11.50;7.03;;;;;;;15.46;100.00;101165.31;7390129;19;20035;-76
2022/09/03 04:23:14;;;;;;;9.38;6.50;;;;;;;15.51;100.00;101158.25;7390297;19;20010;-75
2022/09/03 04:25:44;;;;;;;10.27;6.35;;;;;;;15.45;100.00;101160.91;7392401;19;20053;-77
2022/09/03 04:28:14;;;;;;;12.20;6.75;;;;;;;15.38;100.00;101158.25;7388990;19;20010;-77
2022/09/03 04:30:44;;;;;;;10.38;6.70;;;;;;;15.36;100.00;101151.22;7393761;19;20018;-76
2022/09/03 04:33:21;;;;;;;11.82;6.13;;;;;;;15.38;100.00;101157.38;7393162;19;20025;-70
2022/09/03 04:35:51;;;;;;;11.38;6.55;;;;;;;15.33;100.00;101157.41;7388102;19;20007;-69
2022/09/03 04:38:21;;;;;;;11.30;6.35;;;;;;;15.27;100.00;101154.75;7383421;19;20014;-71
2022/09/03 04:40:53;;;;;;;10.45;6.20;;;;;;;15.29;100.00;101153.00;7383132;19;20314;-71
2022/09/03 04:43:23;;;;;;;11.30;6.95;;;;;;;15.25;100.00;101150.34;7384423;19;20014;-76
2022/09/03 04:45:53;;;;;;;10.38;6.15;;;;;;;15.24;100.00;101152.13;7383744;19;20376;-77
2022/09/03 04:48:26;;;;;;;10.88;6.50;;;;;;;15.18;100.00;101154.75;7383793;19;20354;-76
2022/09/03 04:50:57;;;;;;;10.73;6.72;;;;;;;15.15;100.00;101152.13;7381756;19;20031;-78
2022/09/03 04:53:30;;;;;;;11.50;6.43;;;;;;;15.14;100.00;101153.00;7379554;19;20049;-75
2022/09/03 04:56:00;;;;;;;11.23;7.07;;;;;;;15.11;100.00;101155.66;7383755;19;20467;-75
2022/09/03 04:58:30;;;;;;;12.70;7.15;;;;;;;15.04;100.00;101157.41;7384766;19;20018;-77
2022/09/03 05:01:00;;;;;;;12.40;6.85;;;;;;;15.07;100.00;101151.25;7383405;19;20934;-76
2022/09/03 05:03:36;;;;;;;11.30;6.80;;;;;;;15.01;100.00;101157.41;7384176;19;20018;-76
2022/09/03 05:06:08;;;;;;;11.85;6.80;;;;;;;15.02;100.00;101151.25;7384080;19;20011;-76
2022/09/03 05:08:42;;;;;;;13.15;6.53;;;;;;;15.00;100.00;101153.00;7383505;19;20010;-76
2022/09/03 05:11:12;;;;;;;11.00;7.63;;;;;;;15.01;100.00;101156.53;7383512;19;20423;-76
2022/09/03 05:13:42;;;;;;;12.02;6.15;;;;;;;15.01;100.00;101153.88;7380452;19;20015;-76
2022/09/03 05:16:13;;;;;;;10.25;6.20;;;;;;;14.97;100.00;101150.38;7377775;19;20086;-77
2022/09/03 05:18:46;;;;;;;11.40;6.90;;;;;;;14.96;100.00;101158.28;7380010;19;20097;-75
2022/09/03 05:21:18;;;;;;;10.98;7.10;;;;;;;14.98;100.00;101151.25;7379573;19;20503;-75
2022/09/03 05:23:50;;;;;;;9.75;6.57;;;;;;;15.01;100.00;101159.16;7381300;19;20017;-76
2022/09/03 05:26:22;;;;;;;13.30;7.07;;;;;;;15.05;100.00;101158.28;7381626;19;20014;-76
2022/09/03 05:28:56;;;;;;;10.75;6.65;;;;;;;15.02;100.00;101158.28;7382414;19;20011;-76
2022/09/03 05:31:28;;;;;;;11.35;6.55;;;;;;;15.14;100.00;101163.56;7381752;19;20415;-76
2022/09/03 05:34:05;;;;;;;19.65;7.32;;;;;;;15.11;100.00;101150.38;7379085;19;20015;-72
2022/09/03 05:36:39;;;;;;;14.50;6.78;;;;;;;15.16;100.00;101155.66;7377032;19;20028;-71
2022/09/03 05:39:09;;;;;;;11.13;6.53;;;;;;;15.20;100.00;101160.94;7379300;19;20321;-71
2022/09/03 05:41:39;;;;;;;12.23;6.85;;;;;;;15.29;100.00;101157.41;7377879;19;20015;-72
2022/09/03 05:44:09;;;;;;;10.85;7.03;;;;;;;15.32;100.00;101162.69;7378764;19;20019;-71
2022/09/03 05:46:39;;;;;;;11.65;7.00;;;;;;;15.36;100.00;101154.75;7377945;19;20017;-71
2022/09/03 05:49:11;;;;;;;11.68;7.15;;;;;;;15.44;100.00;101162.66;7378049;19;20084;-72
2022/09/03 05:51:41;;;;;;;12.07;6.57;;;;;;;15.50;100.00;101156.50;7381267;19;20472;-71
2022/09/03 05:54:12;;;;;;;12.05;7.07;;;;;;;15.57;100.00;101164.44;7374980;19;20010;-72
2022/09/03 05:56:42;;;;;;;11.73;6.90;;;;;;;15.68;100.00;101167.03;7381357;19;20020;-77
2022/09/03 05:59:14;;;;;;;10.07;6.93;;;;;;;15.79;100.00;101159.94;7382389;19;20043;-77
2022/09/03 06:01:45;;;;;;;13.05;7.40;;;;;;;15.85;100.00;101159.94;7380406;19;20010;-76
2022/09/03 06:04:23;;;;;;;12.40;6.47;;;;;;;15.89;100.00;101161.69;7383436;19;20030;-76
2022/09/03 06:06:53;;;;;;;9.85;7.45;;;;;;;15.95;100.00;101169.59;7381499;19;20011;-76
2022/09/03 06:09:23;;;;;;;11.35;6.68;;;;;;;16.08;100.00;101172.19;7382429;19;20011;-77
2022/09/03 06:11:54;;;;;;;15.35;7.47;;;;;;;16.21;100.00;101173.91;7379443;19;20043;-76
2022/09/03 06:14:27;;;;;;;10.55;6.60;;;;;;;16.33;100.00;101168.56;7381369;19;20231;-76
2022/09/03 06:16:57;;;;;;;14.00;7.60;;;;;;;16.35;100.00;101172.06;7382375;19;20053;-76
2022/09/03 06:19:35;;;;;;;10.88;6.88;;;;;;;16.49;100.00;101167.59;7380227;19;20014;-76
2022/09/03 06:22:09;;;;;;;12.27;7.68;;;;;;;16.64;100.00;101170.13;7380446;19;20018;-75
2022/09/03 06:24:39;;;;;;;12.18;7.22;;;;;;;16.63;100.00;101173.69;7380242;19;20018;-76
2022/09/03 06:27:09;;;;;;;13.88;7.53;;;;;;;16.68;100.00;101173.66;7381190;19;20035;-78
2022/09/03 06:29:39;;;;;;;10.25;7.38;;;;;;;16.81;100.00;101177.09;7381858;19;20003;-75
2022/09/03 06:32:08;;;;;;;10.90;6.65;;;;;;;16.87;98.97;101169.09;7383466;19;20014;-78
2022/09/03 06:34:41;;;;;;;14.88;6.90;;;;;;;16.96;97.86;101175.22;7389070;19;20011;-78
2022/09/03 06:37:11;;;;;;;11.50;6.68;;;;;;;17.06;97.75;101176.03;7387906;19;20039;-78
2022/09/03 06:39:41;;;;;;;11.50;6.65;;;;;;;17.26;95.84;101170.56;7388590;19;20034;-76
2022/09/03 06:42:11;;;;;;;12.43;6.97;;;;;;;17.37;95.82;101176.63;7385314;19;20007;-76
2022/09/03 06:44:41;;;;;;;12.25;6.78;;;;;;;17.44;94.78;101180.13;7383911;19;20496;-70
2022/09/03 06:47:11;;;;;;;14.90;7.15;;;;;;;17.53;91.87;101180.91;7383649;19;20011;-70
2022/09/03 06:49:43;;;;;;;10.88;6.97;;;;;;;17.74;92.50;101178.94;7384236;19;20122;-77
2022/09/03 06:52:14;;;;;;;17.47;7.80;;;;;;;17.83;90.91;101178.81;7385008;19;20014;-76
2022/09/03 06:54:44;;;;;;;13.20;6.78;;;;;;;18.07;90.29;101185.63;7385853;19;20018;-76
2022/09/03 06:57:14;;;;;;;10.70;6.65;;;;;;;18.23;88.94;101179.22;7387048;19;20007;-71
2022/09/03 06:59:44;;;;;;;13.00;6.43;;;;;;;18.28;87.18;101180.94;7382210;19;20023;-70
2022/09/03 07:02:14;;;;;;;10.18;7.00;;;;;;;18.41;87.08;101184.31;7386314;19;20035;-70
2022/09/03 07:04:48;;;;;;;11.35;7.00;;;;;;;18.56;86.82;101185.88;7385137;19;20708;-71
2022/09/03 07:07:18;;;;;;;13.32;7.20;;;;;;;18.68;87.08;101187.50;7385211;19;20002;-70
2022/09/03 07:09:48;;;;;;;11.75;6.78;;;;;;;18.80;85.43;101187.31;7384432;19;20620;-71
2022/09/03 07:12:18;;;;;;;12.30;7.32;;;;;;;18.91;84.87;101190.69;7384374;19;20041;-70
2022/09/03 07:14:49;;;;;;;10.70;6.88;;;;;;;19.11;83.72;101190.38;7385132;19;20010;-76
2022/09/03 07:17:19;;;;;;;13.07;7.20;;;;;;;19.10;81.73;101188.59;7384311;19;20031;-71
2022/09/03 07:19:52;;;;;;;13.85;6.85;;;;;;;19.17;81.66;101183.16;7385368;19;20019;-71
2022/09/03 07:22:22;;;;;;;12.05;7.00;;;;;;;19.38;81.77;101194.34;7384648;19;20021;-70
2022/09/03 07:25:00;;;;;;;14.90;7.72;;;;;;;19.62;80.73;101180.63;7383882;19;20052;-70
2022/09/03 07:27:31;;;;;;;13.15;6.95;;;;;;;19.41;79.62;101196.94;7383841;19;20018;-70
2022/09/03 07:30:08;;;;;;;12.60;6.85;;;;;;;19.58;79.37;101185.13;7384032;19;20483;-70
2022/09/03 07:32:41;;;;;;;12.98;6.88;;;;;;;19.88;78.83;101188.09;7389014;19;20500;-75
2022/09/03 07:35:14;;;;;;;12.63;7.57;;;;;;;20.06;78.00;101187.72;7389163;19;20318;-77
2022/09/03 07:37:44;;;;;;;11.13;6.95;;;;;;;20.09;77.81;101182.34;7389660;19;20014;-78
2022/09/03 07:40:18;;;;;;;11.05;7.13;;;;;;;20.22;76.55;101181.19;7387460;19;20011;-76
2022/09/03 07:42:50;;;;;;;13.30;7.32;;;;;;;20.37;75.02;101179.09;7394722;19;20010;-76
2022/09/03 07:45:23;;;;;;;11.27;6.60;;;;;;;20.33;74.37;101180.97;7392654;19;20018;-77
2022/09/03 07:47:55;;;;;;;10.75;6.35;;;;;;;20.45;73.28;101180.72;7395627;19;20010;-76
2022/09/03 07:50:29;;;;;;;10.25;6.43;;;;;;;20.65;73.46;101180.28;7397906;19;20449;-76
2022/09/03 07:52:59;;;;;;;11.38;7.13;;;;;;;20.77;73.21;101192.44;7391048;19;20159;-71
2022/09/03 07:55:30;;;;;;;11.88;7.20;;;;;;;20.84;71.49;101180.69;7395990;19;20019;-72
2022/09/03 07:58:00;;;;;;;11.00;6.88;;;;;;;21.14;71.54;101193.28;7386740;19;20077;-72
2022/09/03 08:00:32;;;;;;;15.82;8.38;;;;;;;21.23;69.99;101191.34;7385687;19;20011;-72
2022/09/03 08:03:09;;;;;;;11.80;6.53;;;;;;;21.23;70.53;101196.69;7386495;19;20581;-72
2022/09/03 08:05:41;;;;;;;11.38;6.70;;;;;;;21.43;69.31;101197.06;7385421;19;20014;-72
2022/09/03 08:08:13;;;;;;;11.98;7.10;;;;;;;21.66;68.34;101193.78;7385613;19;20043;-71
2022/09/03 08:11:13;;;;;;;14.73;6.65;;;;;;;21.91;66.39;101194.84;7384182;19;20082;-72
2022/09/03 08:13:44;;;;;;;12.77;7.38;;;;;;;21.47;67.43;101204.06;7381941;19;20029;-72
2022/09/03 08:16:17;;;;;;;10.07;6.72;;;;;;;21.15;69.82;101211.03;7383139;19;20006;-72
2022/09/03 08:18:50;;;;;;;12.30;6.70;;;;;;;21.36;69.69;101214.13;7379834;19;20010;-72
2022/09/03 08:21:22;;;;;;;12.38;6.95;;;;;;;21.30;69.87;101214.28;7381381;19;20018;-72
2022/09/03 08:23:54;;;;;;;15.25;6.30;;;;;;;21.56;69.49;101217.16;7380467;19;20015;-72
2022/09/03 08:26:24;;;;;;;14.98;6.95;;;;;;;21.58;68.34;101220.69;7381238;19;20021;-71
2022/09/03 08:28:54;;;;;;;14.35;6.75;;;;;;;21.57;69.04;101218.91;7380457;19;20059;-72
2022/09/03 08:31:26;;;;;;;11.15;6.55;;;;;;;21.46;69.37;101221.88;7381244;19;20822;-72
2022/09/03 08:33:59;;;;;;;11.55;6.68;;;;;;;21.65;68.98;101214.25;7381464;19;20018;-72
2022/09/03 08:36:37;;;;;;;12.55;7.57;;;;;;;21.75;69.32;101213.09;7379651;19;20021;-71
2022/09/03 08:39:11;;;;;;;8.50;5.80;;;;;;;22.07;68.14;101212.22;7382290;19;20297;-71
2022/09/03 08:41:59;;;;;;;11.60;6.70;;;;;;;22.35;66.29;101206.94;7380709;19;20014;-73
2022/09/03 08:44:45;;;;;;;9.98;6.25;;;;;;;22.22;66.24;101220.72;7380599;19;20030;-71
2022/09/03 08:47:20;;;;;;;10.70;6.43;;;;;;;22.75;65.33;101213.75;7380297;19;20523;-71
2022/09/03 08:49:54;;;;;;;13.65;7.03;;;;;;;22.85;63.83;101209.91;7379284;19;20014;-71
2022/09/03 08:52:41;;;;;;;13.65;6.82;;;;;;;22.89;63.19;101205.31;7376104;19;21733;-71
2022/09/03 08:55:23;;;;;;;13.23;6.72;;;;;;;23.22;61.71;101212.25;7379928;19;20527;-71
2022/09/03 08:57:59;;;;;;;11.30;6.22;;;;;;;23.20;61.66;101205.19;7381576;19;20010;-71
2022/09/03 09:00:47;;;;;;;11.25;6.28;;;;;;;23.38;60.62;101213.47;7380579;19;20011;-71
2022/09/03 09:03:35;;;;;;;10.35;6.32;;;;;;;23.33;60.31;101211.88;7381806;19;20007;-76
2022/09/03 09:06:13;;;;;;;11.13;6.35;;;;;;;23.46;58.86;101214.09;7383460;19;20018;-78
2022/09/03 09:08:55;;;;;;;11.95;6.13;;;;;;;23.37;58.18;101213.53;7383225;19;20043;-77
2022/09/03 09:11:36;;;;;;;11.73;6.78;;;;;;;23.60;57.90;101215.47;7384120;19;20471;-76
2022/09/03 09:14:15;;;;;;;14.15;6.60;;;;;;;23.63;57.20;101218.91;7382595;19;20558;-77
2022/09/03 09:16:53;;;;;;;12.23;6.65;;;;;;;23.83;57.35;101220.00;7382332;19;20039;-77
2022/09/03 09:19:39;;;;;;;10.90;6.38;;;;;;;23.90;57.52;101218.88;7381120;19;20022;-77
2022/09/03 09:22:12;;;;;;;15.40;6.80;;;;;;;23.86;57.43;101222.59;7382245;19;20094;-76
2022/09/03 09:24:48;;;;;;;10.63;6.95;;;;;;;24.00;58.16;101225.59;7384622;19;20035;-77
2022/09/03 09:27:19;;;;;;;14.07;7.05;;;;;;;23.94;57.89;101224.03;7384188;19;20044;-77
2022/09/03 09:29:51;;;;;;;12.52;6.20;;;;;;;24.17;56.60;101233.03;7383865;19;20049;-77
2022/09/03 09:32:22;;;;;;;12.60;6.43;;;;;;;24.31;56.21;101226.25;7382098;19;20015;-77
2022/09/03 09:34:53;;;;;;;10.77;7.25;;;;;;;24.29;56.79;101219.22;7379927;19;20006;-76
2022/09/03 09:37:23;;;;;;;16.02;5.97;;;;;;;24.72;57.03;101223.81;7385370;19;20035;-77
2022/09/03 09:40:04;;;;;;;13.15;6.53;;;;;;;24.86;56.27;101232.19;7380812;19;20726;-76
2022/09/03 09:42:35;;;;;;;11.07;6.03;;;;;;;24.89;55.47;101223.16;7382489;19;20475;-77
2022/09/03 09:45:11;;;;;;;12.48;6.70;;;;;;;24.68;54.48;101228.41;7383443;19;20040;-78
2022/09/03 09:47:41;;;;;;;10.13;6.15;;;;;;;25.07;54.24;101217.91;7383368;19;20431;-78
2022/09/03 09:50:21;;;;;;;11.82;5.78;;;;;;;24.98;53.86;101217.41;7382468;19;20007;-75
2022/09/03 09:53:04;;;;;;;10.30;6.27;;;;;;;25.07;53.57;101217.03;7375381;19;20010;-76
2022/09/03 09:55:51;;;;;;;9.45;6.20;;;;;;;25.25;54.10;101215.41;7381982;19;20275;-76
2022/09/03 09:58:22;;;;;;;13.95;6.13;;;;;;;25.28;54.63;101200.03;7379828;19;20097;-76
2022/09/03 10:01:01;;;;;;;11.93;5.70;;;;;;;25.20;54.24;101204.84;7382029;19;20040;-78
2022/09/03 10:03:39;;;;;;;13.57;6.45;;;;;;;25.28;52.72;101209.91;7379028;19;20017;-76
2022/09/03 10:08:54;;;;;;;12.75;6.60;;;;;;;25.53;51.91;101205.25;7386617;19;20002;-77
2022/09/03 10:11:27;;;;;;;12.45;6.88;;;;;;;25.58;52.50;101207.75;7387474;19;20010;-77
2022/09/03 10:13:57;;;;;;;9.88;5.78;;;;;;;25.98;52.66;101207.75;7388861;19;20011;-77
2022/09/03 10:16:30;;;;;;;10.38;5.68;;;;;;;25.81;51.37;101204.97;7389039;19;20080;-77
2022/09/03 10:19:05;;;;;;;;;;;;;;;25.82;50.25;101205.84;7388454;19;20006;-77
2022/09/03 10:21:44;;;;;;;12.38;6.10;;;;;;;26.06;50.96;101205.56;7387532;19;19923;-77
2022/09/03 10:24:40;;;;;;;11.63;6.40;;;;;;;25.99;51.44;101206.81;7386120;19;20040;-77
2022/09/03 10:27:16;;;;;;;12.05;6.70;;;;;;;25.79;52.08;101208.66;7386937;19;20014;-77
2022/09/03 10:29:47;;;;;;;10.70;6.57;;;;;;;25.92;51.23;101207.16;7384760;19;20019;-77
2022/09/03 10:32:35;;;;;;;11.20;6.45;;;;;;;26.31;50.64;101199.97;7386216;19;20018;-77
2022/09/03 10:35:20;;;;;;;12.93;7.33;;;;;;;26.30;50.54;101198.19;7386843;19;20018;-78
2022/09/03 10:37:56;;;;;;;15.98;7.05;;;;;;;26.20;50.56;101213.00;7387266;19;20462;-77
2022/09/03 10:40:39;;;;;;;13.23;6.78;;;;;;;26.32;51.78;101200.84;7387155;19;20018;-78
2022/09/03 10:43:31;;;;;;;10.95;6.57;;;;;;;26.41;50.96;101207.63;7387438;19;20540;-77
2022/09/03 10:46:05;;;;;;;15.43;5.57;;;;;;;26.72;51.21;101199.84;7386817;19;20016;-78
2022/09/03 10:48:56;;;;;;;14.57;7.38;;;;;;;26.65;50.67;101195.72;7386762;19;20222;-78
2022/09/03 10:51:39;;;;;;;16.23;6.72;;;;;;;26.62;50.00;101207.50;7387051;19;20014;-76
2022/09/03 10:54:26;;;;;;;10.43;7.20;;;;;;;26.17;49.96;101202.41;7382594;19;20114;-76
2022/09/03 10:57:05;;;;;;;14.10;7.07;;;;;;;26.68;48.17;101203.63;7389523;19;20015;-78
2022/09/03 10:59:52;;;;;;;12.80;7.20;;;;;;;26.49;49.31;101200.06;7386852;19;20018;-76
2022/09/03 11:02:36;;;;;;;14.80;7.13;;;;;;;26.56;49.69;101199.72;7386480;19;20007;-77
2022/09/03 11:05:16;;;;;;;13.13;6.55;;;;;;;26.66;47.94;101197.44;7387238;19;20015;-75
2022/09/03 11:07:50;;;;;;;11.60;7.68;;;;;;;27.10;47.75;101191.72;7394642;19;20015;-77
2022/09/03 11:10:25;;;;;;;10.85;5.95;;;;;;;26.90;48.53;101200.78;7387995;19;20032;-77
2022/09/03 11:13:12;;;;;;;9.57;6.03;;;;;;;27.26;46.48;101200.78;7389030;19;20051;-77
2022/09/03 11:15:50;;;;;;;11.10;6.65;;;;;;;27.33;48.29;101212.97;7392171;19;20101;-77
2022/09/03 11:18:24;;;;;;;11.05;7.13;;;;;;;27.27;46.59;101208.78;7390348;19;20013;-72
2022/09/03 11:21:03;;;;;;;13.88;7.55;;;;;;;27.15;46.35;101206.69;7394181;19;20051;-73
2022/09/03 11:23:45;;;;;;;11.40;7.15;;;;;;;27.24;46.02;101195.47;7393297;19;20502;-73
2022/09/03 11:26:20;;;;;;;11.57;6.35;;;;;;;27.49;45.91;101208.56;7397611;19;20145;-77
2022/09/03 11:29:01;;;;;;;12.63;7.40;;;;;;;27.13;47.12;101207.72;7396926;19;20011;-77
2022/09/03 11:31:47;;;;;;;13.07;7.15;;;;;;;27.47;46.24;101201.50;7394380;19;20013;-78
2022/09/03 11:34:28;;;;;;;13.30;7.07;;;;;;;27.48;46.53;101201.44;7384914;19;20034;-77
2022/09/03 11:37:14;;;;;;;12.40;8.20;;;;;;;27.22;46.63;101208.13;7385616;19;20021;-77
2022/09/03 11:39:44;;;;;;;12.65;7.32;;;;;;;27.34;46.19;101198.56;7386522;19;20230;-77
2022/09/03 11:42:28;;;;;;;10.50;6.93;;;;;;;27.65;45.87;101200.59;7386854;19;20014;-78
2022/09/03 11:45:15;;;;;;;;;;;;;;;27.53;45.19;101194.00;7383466;19;20042;-77
2022/09/03 11:47:50;;;;;;;15.10;7.65;;;;;;;27.59;45.88;101196.41;7383937;19;20368;-77
2022/09/03 11:50:23;;;;;;;11.75;7.15;;;;;;;27.80;45.72;101185.44;7382441;19;20289;-77
2022/09/03 11:52:56;;;;;;;12.63;6.28;;;;;;;27.81;46.33;101182.66;7380722;19;20002;-78
2022/09/03 11:55:33;;;;;;;12.50;6.47;;;;;;;27.48;45.66;101184.41;7383769;19;20032;-77
2022/09/03 11:58:23;;;;;;;12.65;7.65;;;;;;;27.46;46.40;101184.47;7383896;19;20014;-77
2022/09/03 12:00:54;;;;;;;11.45;6.57;;;;;;;27.64;45.36;101177.28;7383225;19;20017;-77
2022/09/03 12:03:37;;;;;;;16.83;6.90;;;;;;;27.72;45.74;101179.59;7384454;19;20074;-78